sensor_id;sensor_type;location;lat;lon;timestamp;P1;durP1;ratioP1;P2;durP2;ratioP2
71679;SDS011;59512;42.662;23.254;2022-12-18T00:03:50;7.22;;;3.75;;
71679;SDS011;59512;42.662;23.254;2022-12-18T00:06:17;9.23;;;4.77;;
71679;SDS011;59512;42.662;23.254;2022-12-18T00:08:43;8.35;;;4.50;;
71679;SDS011;59512;42.662;23.254;2022-12-18T00:11:13;9.23;;;4.88;;
71679;SDS011;59512;42.662;23.254;2022-12-18T00:13:40;9.23;;;4.95;;
71679;SDS011;59512;42.662;23.254;2022-12-18T00:16:06;9.23;;;5.50;;
71679;SDS011;59512;42.662;23.254;2022-12-18T00:18:33;9.05;;;5.05;;
71679;SDS011;59512;42.662;23.254;2022-12-18T00:20:59;9.67;;;5.93;;
71679;SDS011;59512;42.662;23.254;2022-12-18T00:23:25;9.52;;;5.55;;
71679;SDS011;59512;42.662;23.254;2022-12-18T00:25:51;10.52;;;5.53;;
71679;SDS011;59512;42.662;23.254;2022-12-18T00:28:17;10.05;;;5.47;;
71679;SDS011;59512;42.662;23.254;2022-12-18T00:30:42;10.17;;;5.90;;
71679;SDS011;59512;42.662;23.254;2022-12-18T00:33:07;11.17;;;5.50;;
71679;SDS011;59512;42.662;23.254;2022-12-18T00:35:33;10.13;;;5.60;;
71679;SDS011;59512;42.662;23.254;2022-12-18T00:37:58;9.77;;;5.27;;
71679;SDS011;59512;42.662;23.254;2022-12-18T00:40:24;9.70;;;5.25;;
71679;SDS011;59512;42.662;23.254;2022-12-18T00:42:49;10.13;;;6.13;;
71679;SDS011;59512;42.662;23.254;2022-12-18T00:45:20;10.73;;;5.47;;
71679;SDS011;59512;42.662;23.254;2022-12-18T00:47:46;11.82;;;6.45;;
71679;SDS011;59512;42.662;23.254;2022-12-18T00:50:11;10.43;;;5.77;;
71679;SDS011;59512;42.662;23.254;2022-12-18T00:52:37;10.45;;;6.25;;
71679;SDS011;59512;42.662;23.254;2022-12-18T00:55:03;12.77;;;7.13;;
71679;SDS011;59512;42.662;23.254;2022-12-18T00:57:28;11.85;;;6.53;;
71679;SDS011;59512;42.662;23.254;2022-12-18T00:59:54;9.33;;;5.47;;
71679;SDS011;59512;42.662;23.254;2022-12-18T01:02:19;9.80;;;5.67;;
71679;SDS011;59512;42.662;23.254;2022-12-18T01:04:45;10.43;;;6.13;;
71679;SDS011;59512;42.662;23.254;2022-12-18T01:07:10;10.93;;;6.20;;
71679;SDS011;59512;42.662;23.254;2022-12-18T01:09:35;10.40;;;6.13;;
71679;SDS011;59512;42.662;23.254;2022-12-18T01:12:01;11.13;;;6.43;;
71679;SDS011;59512;42.662;23.254;2022-12-18T01:14:26;12.68;;;6.88;;
71679;SDS011;59512;42.662;23.254;2022-12-18T01:16:52;11.40;;;6.27;;
71679;SDS011;59512;42.662;23.254;2022-12-18T01:19:17;11.17;;;6.77;;
71679;SDS011;59512;42.662;23.254;2022-12-18T01:21:42;12.13;;;6.73;;
71679;SDS011;59512;42.662;23.254;2022-12-18T01:24:09;12.20;;;7.10;;
71679;SDS011;59512;42.662;23.254;2022-12-18T01:26:36;10.52;;;6.50;;
71679;SDS011;59512;42.662;23.254;2022-12-18T01:29:02;12.60;;;6.93;;
71679;SDS011;59512;42.662;23.254;2022-12-18T01:31:28;10.25;;;6.00;;
71679;SDS011;59512;42.662;23.254;2022-12-18T01:33:55;12.93;;;7.50;;
71679;SDS011;59512;42.662;23.254;2022-12-18T01:36:22;12.30;;;7.18;;
71679;SDS011;59512;42.662;23.254;2022-12-18T01:38:53;12.57;;;7.72;;
71679;SDS011;59512;42.662;23.254;2022-12-18T01:41:25;13.67;;;7.70;;
71679;SDS011;59512;42.662;23.254;2022-12-18T01:47:15;15.15;;;9.00;;
71679;SDS011;59512;42.662;23.254;2022-12-18T01:49:45;15.60;;;9.00;;
71679;SDS011;59512;42.662;23.254;2022-12-18T01:52:10;14.87;;;8.80;;
71679;SDS011;59512;42.662;23.254;2022-12-18T01:54:35;15.80;;;9.50;;
71679;SDS011;59512;42.662;23.254;2022-12-18T01:57:01;17.00;;;9.33;;
71679;SDS011;59512;42.662;23.254;2022-12-18T01:59:26;14.75;;;9.40;;
71679;SDS011;59512;42.662;23.254;2022-12-18T02:01:53;14.65;;;9.35;;
71679;SDS011;59512;42.662;23.254;2022-12-18T02:04:19;15.67;;;9.00;;
71679;SDS011;59512;42.662;23.254;2022-12-18T02:10:00;13.73;;;7.95;;
71679;SDS011;59512;42.662;23.254;2022-12-18T02:12:32;13.52;;;8.10;;
71679;SDS011;59512;42.662;23.254;2022-12-18T02:17:55;11.57;;;7.03;;
71679;SDS011;59512;42.662;23.254;2022-12-18T02:26:37;11.45;;;6.43;;
71679;SDS011;59512;42.662;23.254;2022-12-18T02:29:11;10.30;;;6.00;;
71679;SDS011;59512;42.662;23.254;2022-12-18T02:31:42;11.23;;;6.60;;
71679;SDS011;59512;42.662;23.254;2022-12-18T02:34:09;10.95;;;6.30;;
71679;SDS011;59512;42.662;23.254;2022-12-18T02:36:36;11.80;;;6.57;;
71679;SDS011;59512;42.662;23.254;2022-12-18T02:39:04;11.15;;;6.20;;
71679;SDS011;59512;42.662;23.254;2022-12-18T02:41:32;9.45;;;5.88;;
71679;SDS011;59512;42.662;23.254;2022-12-18T02:43:59;11.30;;;6.10;;
71679;SDS011;59512;42.662;23.254;2022-12-18T02:46:33;11.68;;;6.63;;
71679;SDS011;59512;42.662;23.254;2022-12-18T02:51:50;12.90;;;7.97;;
71679;SDS011;59512;42.662;23.254;2022-12-18T02:57:05;13.48;;;7.60;;
71679;SDS011;59512;42.662;23.254;2022-12-18T02:59:56;11.52;;;7.30;;
71679;SDS011;59512;42.662;23.254;2022-12-18T03:02:45;11.70;;;6.67;;
71679;SDS011;59512;42.662;23.254;2022-12-18T03:05:17;11.77;;;6.63;;
71679;SDS011;59512;42.662;23.254;2022-12-18T03:07:49;11.00;;;6.80;;
71679;SDS011;59512;42.662;23.254;2022-12-18T03:10:18;11.43;;;6.78;;
71679;SDS011;59512;42.662;23.254;2022-12-18T03:12:53;10.13;;;5.88;;
71679;SDS011;59512;42.662;23.254;2022-12-18T03:15:30;8.93;;;5.50;;
71679;SDS011;59512;42.662;23.254;2022-12-18T03:18:01;10.82;;;5.65;;
71679;SDS011;59512;42.662;23.254;2022-12-18T03:20:29;9.63;;;5.38;;
71679;SDS011;59512;42.662;23.254;2022-12-18T03:22:59;9.38;;;5.10;;
71679;SDS011;59512;42.662;23.254;2022-12-18T03:25:27;10.43;;;6.15;;
71679;SDS011;59512;42.662;23.254;2022-12-18T03:27:54;11.47;;;6.10;;
71679;SDS011;59512;42.662;23.254;2022-12-18T03:30:21;10.35;;;5.72;;
71679;SDS011;59512;42.662;23.254;2022-12-18T03:32:52;11.90;;;5.83;;
71679;SDS011;59512;42.662;23.254;2022-12-18T03:35:31;11.60;;;5.95;;
71679;SDS011;59512;42.662;23.254;2022-12-18T03:37:59;9.83;;;5.80;;
71679;SDS011;59512;42.662;23.254;2022-12-18T03:46:30;10.57;;;6.03;;
71679;SDS011;59512;42.662;23.254;2022-12-18T03:49:10;13.55;;;6.03;;
71679;SDS011;59512;42.662;23.254;2022-12-18T03:54:07;9.60;;;5.68;;
71679;SDS011;59512;42.662;23.254;2022-12-18T03:56:37;9.70;;;5.53;;
71679;SDS011;59512;42.662;23.254;2022-12-18T03:59:05;10.80;;;5.43;;
71679;SDS011;59512;42.662;23.254;2022-12-18T04:01:41;10.60;;;5.38;;
71679;SDS011;59512;42.662;23.254;2022-12-18T04:04:08;9.98;;;5.70;;
71679;SDS011;59512;42.662;23.254;2022-12-18T04:06:35;10.17;;;5.40;;
71679;SDS011;59512;42.662;23.254;2022-12-18T04:09:02;11.27;;;5.93;;
71679;SDS011;59512;42.662;23.254;2022-12-18T04:11:28;10.63;;;5.57;;
71679;SDS011;59512;42.662;23.254;2022-12-18T04:13:57;10.33;;;5.50;;
71679;SDS011;59512;42.662;23.254;2022-12-18T04:16:23;10.98;;;5.55;;
71679;SDS011;59512;42.662;23.254;2022-12-18T04:18:49;12.10;;;6.20;;
71679;SDS011;59512;42.662;23.254;2022-12-18T04:21:15;11.60;;;6.72;;
71679;SDS011;59512;42.662;23.254;2022-12-18T04:23:40;10.03;;;5.53;;
71679;SDS011;59512;42.662;23.254;2022-12-18T04:26:05;10.67;;;5.87;;
71679;SDS011;59512;42.662;23.254;2022-12-18T04:28:31;10.20;;;5.63;;
71679;SDS011;59512;42.662;23.254;2022-12-18T04:30:56;10.00;;;5.20;;
71679;SDS011;59512;42.662;23.254;2022-12-18T04:33:22;13.45;;;6.68;;
71679;SDS011;59512;42.662;23.254;2022-12-18T04:35:47;11.38;;;5.70;;
71679;SDS011;59512;42.662;23.254;2022-12-18T04:38:12;13.00;;;6.77;;
71679;SDS011;59512;42.662;23.254;2022-12-18T04:40:38;11.77;;;6.07;;
71679;SDS011;59512;42.662;23.254;2022-12-18T04:43:04;13.05;;;6.90;;
71679;SDS011;59512;42.662;23.254;2022-12-18T04:45:30;12.10;;;6.68;;
71679;SDS011;59512;42.662;23.254;2022-12-18T04:47:57;11.88;;;6.50;;
71679;SDS011;59512;42.662;23.254;2022-12-18T04:50:22;11.57;;;6.73;;
71679;SDS011;59512;42.662;23.254;2022-12-18T04:52:48;11.52;;;6.40;;
71679;SDS011;59512;42.662;23.254;2022-12-18T04:55:13;10.87;;;5.93;;
71679;SDS011;59512;42.662;23.254;2022-12-18T04:57:39;14.37;;;7.07;;
71679;SDS011;59512;42.662;23.254;2022-12-18T05:00:04;12.50;;;7.10;;
71679;SDS011;59512;42.662;23.254;2022-12-18T05:02:31;11.30;;;6.38;;
71679;SDS011;59512;42.662;23.254;2022-12-18T05:04:57;11.27;;;5.95;;
71679;SDS011;59512;42.662;23.254;2022-12-18T05:07:22;12.07;;;5.83;;
71679;SDS011;59512;42.662;23.254;2022-12-18T05:09:47;11.90;;;6.23;;
71679;SDS011;59512;42.662;23.254;2022-12-18T05:12:13;10.73;;;5.80;;
71679;SDS011;59512;42.662;23.254;2022-12-18T05:14:38;12.00;;;6.23;;
71679;SDS011;59512;42.662;23.254;2022-12-18T05:17:03;11.70;;;6.30;;
71679;SDS011;59512;42.662;23.254;2022-12-18T05:19:29;11.00;;;6.07;;
71679;SDS011;59512;42.662;23.254;2022-12-18T05:21:54;11.53;;;6.10;;
71679;SDS011;59512;42.662;23.254;2022-12-18T05:24:20;12.13;;;6.07;;
71679;SDS011;59512;42.662;23.254;2022-12-18T05:26:45;10.20;;;5.50;;
71679;SDS011;59512;42.662;23.254;2022-12-18T05:29:10;10.47;;;5.67;;
71679;SDS011;59512;42.662;23.254;2022-12-18T05:31:37;12.25;;;7.07;;
71679;SDS011;59512;42.662;23.254;2022-12-18T05:34:03;13.30;;;7.00;;
71679;SDS011;59512;42.662;23.254;2022-12-18T05:36:29;15.05;;;6.95;;
71679;SDS011;59512;42.662;23.254;2022-12-18T05:38:54;13.73;;;7.43;;
71679;SDS011;59512;42.662;23.254;2022-12-18T05:41:20;14.73;;;7.60;;
71679;SDS011;59512;42.662;23.254;2022-12-18T05:43:45;14.25;;;7.63;;
71679;SDS011;59512;42.662;23.254;2022-12-18T05:46:12;14.40;;;7.90;;
71679;SDS011;59512;42.662;23.254;2022-12-18T05:48:40;14.23;;;8.52;;
71679;SDS011;59512;42.662;23.254;2022-12-18T05:51:10;14.50;;;8.30;;
71679;SDS011;59512;42.662;23.254;2022-12-18T05:53:36;14.50;;;8.02;;
71679;SDS011;59512;42.662;23.254;2022-12-18T05:56:03;15.05;;;7.75;;
71679;SDS011;59512;42.662;23.254;2022-12-18T05:58:30;14.75;;;7.97;;
71679;SDS011;59512;42.662;23.254;2022-12-18T06:00:56;14.60;;;8.30;;
71679;SDS011;59512;42.662;23.254;2022-12-18T06:03:22;15.52;;;8.82;;
71679;SDS011;59512;42.662;23.254;2022-12-18T06:05:47;15.53;;;8.47;;
71679;SDS011;59512;42.662;23.254;2022-12-18T06:08:13;16.93;;;9.03;;
71679;SDS011;59512;42.662;23.254;2022-12-18T06:10:38;17.35;;;9.32;;
71679;SDS011;59512;42.662;23.254;2022-12-18T06:13:04;16.67;;;9.17;;
71679;SDS011;59512;42.662;23.254;2022-12-18T06:15:30;17.23;;;8.85;;
71679;SDS011;59512;42.662;23.254;2022-12-18T06:17:56;15.47;;;8.17;;
71679;SDS011;59512;42.662;23.254;2022-12-18T06:20:21;14.57;;;8.93;;
71679;SDS011;59512;42.662;23.254;2022-12-18T06:22:47;16.27;;;9.25;;
71679;SDS011;59512;42.662;23.254;2022-12-18T06:25:12;15.67;;;8.27;;
71679;SDS011;59512;42.662;23.254;2022-12-18T06:27:38;16.57;;;9.43;;
71679;SDS011;59512;42.662;23.254;2022-12-18T06:30:04;16.92;;;9.45;;
71679;SDS011;59512;42.662;23.254;2022-12-18T06:32:30;16.33;;;9.17;;
71679;SDS011;59512;42.662;23.254;2022-12-18T06:34:55;16.67;;;8.77;;
71679;SDS011;59512;42.662;23.254;2022-12-18T06:37:21;15.33;;;9.00;;
71679;SDS011;59512;42.662;23.254;2022-12-18T06:39:49;15.50;;;8.40;;
71679;SDS011;59512;42.662;23.254;2022-12-18T06:42:15;17.93;;;9.30;;
71679;SDS011;59512;42.662;23.254;2022-12-18T06:44:40;16.60;;;9.73;;
71679;SDS011;59512;42.662;23.254;2022-12-18T06:47:06;17.30;;;9.73;;
71679;SDS011;59512;42.662;23.254;2022-12-18T06:49:31;18.50;;;9.60;;
71679;SDS011;59512;42.662;23.254;2022-12-18T06:51:56;17.93;;;9.87;;
71679;SDS011;59512;42.662;23.254;2022-12-18T06:54:22;17.73;;;9.90;;
71679;SDS011;59512;42.662;23.254;2022-12-18T06:56:47;18.63;;;9.95;;
71679;SDS011;59512;42.662;23.254;2022-12-18T06:59:13;16.63;;;9.30;;
71679;SDS011;59512;42.662;23.254;2022-12-18T07:01:39;17.65;;;9.18;;
71679;SDS011;59512;42.662;23.254;2022-12-18T07:04:05;15.63;;;9.30;;
71679;SDS011;59512;42.662;23.254;2022-12-18T07:06:30;17.20;;;9.30;;
71679;SDS011;59512;42.662;23.254;2022-12-18T07:08:55;14.70;;;7.87;;
71679;SDS011;59512;42.662;23.254;2022-12-18T07:11:21;14.65;;;8.10;;
71679;SDS011;59512;42.662;23.254;2022-12-18T07:13:46;16.85;;;8.93;;
71679;SDS011;59512;42.662;23.254;2022-12-18T07:16:13;18.57;;;9.20;;
71679;SDS011;59512;42.662;23.254;2022-12-18T07:18:40;16.55;;;9.00;;
71679;SDS011;59512;42.662;23.254;2022-12-18T07:21:06;16.37;;;9.03;;
71679;SDS011;59512;42.662;23.254;2022-12-18T07:23:36;17.23;;;9.15;;
71679;SDS011;59512;42.662;23.254;2022-12-18T07:26:05;16.80;;;9.50;;
71679;SDS011;59512;42.662;23.254;2022-12-18T07:28:32;16.75;;;9.10;;
71679;SDS011;59512;42.662;23.254;2022-12-18T07:30:58;19.63;;;10.30;;
71679;SDS011;59512;42.662;23.254;2022-12-18T07:33:27;20.40;;;9.85;;
71679;SDS011;59512;42.662;23.254;2022-12-18T07:35:53;17.10;;;9.47;;
71679;SDS011;59512;42.662;23.254;2022-12-18T07:38:18;17.80;;;9.53;;
71679;SDS011;59512;42.662;23.254;2022-12-18T07:40:43;17.33;;;9.50;;
71679;SDS011;59512;42.662;23.254;2022-12-18T07:43:09;17.23;;;9.10;;
71679;SDS011;59512;42.662;23.254;2022-12-18T07:45:34;18.67;;;9.57;;
71679;SDS011;59512;42.662;23.254;2022-12-18T07:47:59;17.10;;;9.52;;
71679;SDS011;59512;42.662;23.254;2022-12-18T07:50:25;16.95;;;9.23;;
71679;SDS011;59512;42.662;23.254;2022-12-18T07:52:50;19.37;;;10.67;;
71679;SDS011;59512;42.662;23.254;2022-12-18T07:55:16;16.27;;;8.47;;
71679;SDS011;59512;42.662;23.254;2022-12-18T07:57:41;17.90;;;9.13;;
71679;SDS011;59512;42.662;23.254;2022-12-18T08:00:07;18.40;;;10.33;;
71679;SDS011;59512;42.662;23.254;2022-12-18T08:02:33;22.30;;;12.68;;
71679;SDS011;59512;42.662;23.254;2022-12-18T08:04:58;24.87;;;14.27;;
71679;SDS011;59512;42.662;23.254;2022-12-18T08:07:24;25.52;;;15.20;;
71679;SDS011;59512;42.662;23.254;2022-12-18T08:09:49;30.50;;;16.45;;
71679;SDS011;59512;42.662;23.254;2022-12-18T08:12:14;26.17;;;15.30;;
71679;SDS011;59512;42.662;23.254;2022-12-18T08:14:40;29.53;;;17.47;;
71679;SDS011;59512;42.662;23.254;2022-12-18T08:17:05;25.67;;;13.97;;
71679;SDS011;59512;42.662;23.254;2022-12-18T08:19:30;27.73;;;15.40;;
71679;SDS011;59512;42.662;23.254;2022-12-18T08:21:56;24.63;;;14.67;;
71679;SDS011;59512;42.662;23.254;2022-12-18T08:24:22;28.80;;;16.02;;
71679;SDS011;59512;42.662;23.254;2022-12-18T08:26:47;30.50;;;16.77;;
71679;SDS011;59512;42.662;23.254;2022-12-18T08:29:12;27.90;;;16.00;;
71679;SDS011;59512;42.662;23.254;2022-12-18T08:31:38;30.83;;;16.13;;
71679;SDS011;59512;42.662;23.254;2022-12-18T08:34:03;28.67;;;16.20;;
71679;SDS011;59512;42.662;23.254;2022-12-18T08:36:29;27.95;;;16.13;;
71679;SDS011;59512;42.662;23.254;2022-12-18T08:38:54;28.83;;;15.70;;
71679;SDS011;59512;42.662;23.254;2022-12-18T08:41:20;29.60;;;15.90;;
71679;SDS011;59512;42.662;23.254;2022-12-18T08:43:46;29.13;;;16.42;;
71679;SDS011;59512;42.662;23.254;2022-12-18T08:46:35;27.27;;;15.27;;
71679;SDS011;59512;42.662;23.254;2022-12-18T08:49:02;29.60;;;16.45;;
71679;SDS011;59512;42.662;23.254;2022-12-18T08:51:28;29.95;;;16.63;;
71679;SDS011;59512;42.662;23.254;2022-12-18T08:53:53;28.70;;;17.13;;
71679;SDS011;59512;42.662;23.254;2022-12-18T08:56:18;31.40;;;17.20;;
71679;SDS011;59512;42.662;23.254;2022-12-18T08:58:44;29.23;;;17.05;;
71679;SDS011;59512;42.662;23.254;2022-12-18T09:01:10;31.47;;;16.87;;
71679;SDS011;59512;42.662;23.254;2022-12-18T09:03:37;28.00;;;16.65;;
71679;SDS011;59512;42.662;23.254;2022-12-18T09:06:03;32.20;;;17.10;;
71679;SDS011;59512;42.662;23.254;2022-12-18T09:08:29;32.53;;;17.38;;
71679;SDS011;59512;42.662;23.254;2022-12-18T09:10:55;31.40;;;18.10;;
71679;SDS011;59512;42.662;23.254;2022-12-18T09:13:20;32.20;;;17.60;;
71679;SDS011;59512;42.662;23.254;2022-12-18T09:15:53;30.27;;;17.83;;
71679;SDS011;59512;42.662;23.254;2022-12-18T09:18:19;31.38;;;17.50;;
71679;SDS011;59512;42.662;23.254;2022-12-18T09:20:46;33.67;;;18.70;;
71679;SDS011;59512;42.662;23.254;2022-12-18T09:23:12;32.10;;;17.92;;
71679;SDS011;59512;42.662;23.254;2022-12-18T09:25:37;31.83;;;15.87;;
71679;SDS011;59512;42.662;23.254;2022-12-18T09:28:04;25.65;;;15.20;;
71679;SDS011;59512;42.662;23.254;2022-12-18T09:30:31;29.10;;;15.90;;
71679;SDS011;59512;42.662;23.254;2022-12-18T09:32:59;30.65;;;16.33;;
71679;SDS011;59512;42.662;23.254;2022-12-18T09:35:25;30.70;;;16.52;;
71679;SDS011;59512;42.662;23.254;2022-12-18T09:37:50;28.90;;;16.13;;
71679;SDS011;59512;42.662;23.254;2022-12-18T09:40:16;29.70;;;16.13;;
71679;SDS011;59512;42.662;23.254;2022-12-18T09:42:44;32.63;;;17.20;;
71679;SDS011;59512;42.662;23.254;2022-12-18T09:45:13;31.50;;;16.23;;
71679;SDS011;59512;42.662;23.254;2022-12-18T09:47:40;30.38;;;16.42;;
71679;SDS011;59512;42.662;23.254;2022-12-18T09:50:29;30.60;;;16.40;;
71679;SDS011;59512;42.662;23.254;2022-12-18T09:53:04;28.85;;;16.20;;
71679;SDS011;59512;42.662;23.254;2022-12-18T09:55:42;30.83;;;16.55;;
71679;SDS011;59512;42.662;23.254;2022-12-18T09:58:19;29.35;;;16.20;;
71679;SDS011;59512;42.662;23.254;2022-12-18T10:00:51;27.65;;;14.82;;
71679;SDS011;59512;42.662;23.254;2022-12-18T10:03:17;26.13;;;13.73;;
71679;SDS011;59512;42.662;23.254;2022-12-18T10:11:14;25.58;;;14.02;;
71679;SDS011;59512;42.662;23.254;2022-12-18T10:13:57;26.58;;;14.25;;
71679;SDS011;59512;42.662;23.254;2022-12-18T10:16:33;25.55;;;14.02;;
71679;SDS011;59512;42.662;23.254;2022-12-18T10:24:27;23.45;;;12.98;;
71679;SDS011;59512;42.662;23.254;2022-12-18T10:27:00;25.50;;;14.25;;
71679;SDS011;59512;42.662;23.254;2022-12-18T10:29:36;25.08;;;14.02;;
71679;SDS011;59512;42.662;23.254;2022-12-18T10:32:02;25.93;;;14.03;;
71679;SDS011;59512;42.662;23.254;2022-12-18T10:34:27;26.50;;;14.30;;
71679;SDS011;59512;42.662;23.254;2022-12-18T10:36:53;26.00;;;14.68;;
71679;SDS011;59512;42.662;23.254;2022-12-18T10:39:19;24.60;;;13.63;;
71679;SDS011;59512;42.662;23.254;2022-12-18T10:41:47;25.02;;;13.40;;
71679;SDS011;59512;42.662;23.254;2022-12-18T10:44:19;26.13;;;14.07;;
71679;SDS011;59512;42.662;23.254;2022-12-18T10:46:46;23.90;;;13.35;;
71679;SDS011;59512;42.662;23.254;2022-12-18T10:49:18;22.63;;;12.15;;
71679;SDS011;59512;42.662;23.254;2022-12-18T10:51:49;27.73;;;13.68;;
71679;SDS011;59512;42.662;23.254;2022-12-18T10:54:16;22.60;;;12.47;;
71679;SDS011;59512;42.662;23.254;2022-12-18T10:56:43;25.35;;;13.00;;
71679;SDS011;59512;42.662;23.254;2022-12-18T10:59:10;22.30;;;12.10;;
71679;SDS011;59512;42.662;23.254;2022-12-18T11:04:18;21.88;;;11.88;;
71679;SDS011;59512;42.662;23.254;2022-12-18T11:06:53;21.90;;;11.50;;
71679;SDS011;59512;42.662;23.254;2022-12-18T11:09:29;23.20;;;11.63;;
71679;SDS011;59512;42.662;23.254;2022-12-18T11:12:04;22.37;;;12.10;;
71679;SDS011;59512;42.662;23.254;2022-12-18T11:14:43;21.77;;;11.13;;
71679;SDS011;59512;42.662;23.254;2022-12-18T11:17:21;19.95;;;10.82;;
71679;SDS011;59512;42.662;23.254;2022-12-18T11:19:57;22.08;;;11.70;;
71679;SDS011;59512;42.662;23.254;2022-12-18T11:22:24;21.80;;;12.07;;
71679;SDS011;59512;42.662;23.254;2022-12-18T11:25:38;23.00;;;11.33;;
71679;SDS011;59512;42.662;23.254;2022-12-18T11:27:41;23.33;;;11.35;;
71679;SDS011;59512;42.662;23.254;2022-12-18T11:32:45;20.95;;;10.82;;
71679;SDS011;59512;42.662;23.254;2022-12-18T11:35:18;20.63;;;9.88;;
71679;SDS011;59512;42.662;23.254;2022-12-18T11:37:56;21.20;;;10.77;;
71679;SDS011;59512;42.662;23.254;2022-12-18T11:40:28;20.50;;;10.60;;
71679;SDS011;59512;42.662;23.254;2022-12-18T11:45:34;20.08;;;10.63;;
71679;SDS011;59512;42.662;23.254;2022-12-18T11:50:46;20.23;;;11.50;;
71679;SDS011;59512;42.662;23.254;2022-12-18T11:53:15;20.45;;;10.73;;
71679;SDS011;59512;42.662;23.254;2022-12-18T12:04:17;20.70;;;10.70;;
71679;SDS011;59512;42.662;23.254;2022-12-18T12:17:45;21.67;;;11.25;;
71679;SDS011;59512;42.662;23.254;2022-12-18T12:20:16;20.88;;;10.85;;
71679;SDS011;59512;42.662;23.254;2022-12-18T12:26:23;21.60;;;11.27;;
71679;SDS011;59512;42.662;23.254;2022-12-18T12:35:10;22.33;;;12.30;;
71679;SDS011;59512;42.662;23.254;2022-12-18T12:37:57;22.35;;;11.68;;
71679;SDS011;59512;42.662;23.254;2022-12-18T12:40:35;22.45;;;11.98;;
71679;SDS011;59512;42.662;23.254;2022-12-18T12:43:07;21.93;;;12.40;;
71679;SDS011;59512;42.662;23.254;2022-12-18T12:45:56;22.67;;;12.25;;
71679;SDS011;59512;42.662;23.254;2022-12-18T12:50:52;22.45;;;11.98;;
71679;SDS011;59512;42.662;23.254;2022-12-18T12:53:31;23.27;;;13.30;;
71679;SDS011;59512;42.662;23.254;2022-12-18T12:55:59;25.50;;;13.25;;
71679;SDS011;59512;42.662;23.254;2022-12-18T12:58:34;25.48;;;13.13;;
71679;SDS011;59512;42.662;23.254;2022-12-18T13:01:17;23.63;;;12.98;;
71679;SDS011;59512;42.662;23.254;2022-12-18T13:03:46;24.00;;;13.20;;
71679;SDS011;59512;42.662;23.254;2022-12-18T13:09:00;22.52;;;13.05;;
71679;SDS011;59512;42.662;23.254;2022-12-18T13:11:39;25.70;;;12.90;;
71679;SDS011;59512;42.662;23.254;2022-12-18T13:14:28;25.35;;;12.52;;
71679;SDS011;59512;42.662;23.254;2022-12-18T13:19:48;28.58;;;13.55;;
71679;SDS011;59512;42.662;23.254;2022-12-18T13:22:23;26.33;;;13.15;;
71679;SDS011;59512;42.662;23.254;2022-12-18T13:24:50;25.35;;;13.10;;
71679;SDS011;59512;42.662;23.254;2022-12-18T13:35:51;26.23;;;12.60;;
71679;SDS011;59512;42.662;23.254;2022-12-18T13:38:32;21.75;;;12.20;;
71679;SDS011;59512;42.662;23.254;2022-12-18T13:43:46;26.23;;;13.32;;
71679;SDS011;59512;42.662;23.254;2022-12-18T13:46:18;25.00;;;13.48;;
71679;SDS011;59512;42.662;23.254;2022-12-18T13:48:49;27.08;;;14.60;;
71679;SDS011;59512;42.662;23.254;2022-12-18T13:51:16;26.83;;;14.45;;
71679;SDS011;59512;42.662;23.254;2022-12-18T13:53:44;29.20;;;14.63;;
71679;SDS011;59512;42.662;23.254;2022-12-18T13:56:17;27.92;;;14.68;;
71679;SDS011;59512;42.662;23.254;2022-12-18T13:58:43;25.58;;;13.43;;
71679;SDS011;59512;42.662;23.254;2022-12-18T14:01:21;23.83;;;12.73;;
71679;SDS011;59512;42.662;23.254;2022-12-18T14:03:48;25.55;;;13.43;;
71679;SDS011;59512;42.662;23.254;2022-12-18T14:06:16;25.42;;;13.82;;
71679;SDS011;59512;42.662;23.254;2022-12-18T14:08:42;27.00;;;14.57;;
71679;SDS011;59512;42.662;23.254;2022-12-18T14:11:17;23.67;;;13.80;;
71679;SDS011;59512;42.662;23.254;2022-12-18T14:13:47;26.05;;;13.73;;
71679;SDS011;59512;42.662;23.254;2022-12-18T14:16:14;23.70;;;12.43;;
71679;SDS011;59512;42.662;23.254;2022-12-18T14:18:44;19.48;;;10.43;;
71679;SDS011;59512;42.662;23.254;2022-12-18T14:21:17;21.95;;;11.75;;
71679;SDS011;59512;42.662;23.254;2022-12-18T14:23:47;23.20;;;11.83;;
71679;SDS011;59512;42.662;23.254;2022-12-18T14:26:28;22.42;;;12.38;;
71679;SDS011;59512;42.662;23.254;2022-12-18T14:28:55;20.50;;;11.02;;
71679;SDS011;59512;42.662;23.254;2022-12-18T14:31:22;23.80;;;11.83;;
71679;SDS011;59512;42.662;23.254;2022-12-18T14:33:48;23.42;;;12.57;;
71679;SDS011;59512;42.662;23.254;2022-12-18T14:36:15;26.73;;;13.10;;
71679;SDS011;59512;42.662;23.254;2022-12-18T14:38:52;25.60;;;13.20;;
71679;SDS011;59512;42.662;23.254;2022-12-18T14:41:19;27.73;;;13.60;;
71679;SDS011;59512;42.662;23.254;2022-12-18T14:43:52;25.10;;;13.03;;
71679;SDS011;59512;42.662;23.254;2022-12-18T14:48:50;34.15;;;16.65;;
71679;SDS011;59512;42.662;23.254;2022-12-18T14:51:19;24.27;;;12.87;;
71679;SDS011;59512;42.662;23.254;2022-12-18T14:53:47;26.23;;;13.90;;
71679;SDS011;59512;42.662;23.254;2022-12-18T14:56:18;25.60;;;12.50;;
71679;SDS011;59512;42.662;23.254;2022-12-18T14:58:46;28.15;;;14.70;;
71679;SDS011;59512;42.662;23.254;2022-12-18T15:07:13;27.73;;;14.63;;
71679;SDS011;59512;42.662;23.254;2022-12-18T15:09:42;24.58;;;13.77;;
71679;SDS011;59512;42.662;23.254;2022-12-18T15:12:26;31.17;;;15.15;;
71679;SDS011;59512;42.662;23.254;2022-12-18T15:15:41;24.20;;;12.77;;
71679;SDS011;59512;42.662;23.254;2022-12-18T15:20:32;26.02;;;13.43;;
71679;SDS011;59512;42.662;23.254;2022-12-18T15:23:04;26.80;;;13.68;;
71679;SDS011;59512;42.662;23.254;2022-12-18T15:27:59;24.35;;;12.70;;
71679;SDS011;59512;42.662;23.254;2022-12-18T15:30:25;26.50;;;13.87;;
71679;SDS011;59512;42.662;23.254;2022-12-18T15:32:51;27.40;;;14.30;;
71679;SDS011;59512;42.662;23.254;2022-12-18T15:37:47;27.23;;;13.98;;
71679;SDS011;59512;42.662;23.254;2022-12-18T15:40:16;25.27;;;12.53;;
71679;SDS011;59512;42.662;23.254;2022-12-18T15:42:43;25.10;;;13.27;;
71679;SDS011;59512;42.662;23.254;2022-12-18T15:45:28;23.85;;;12.15;;
71679;SDS011;59512;42.662;23.254;2022-12-18T15:47:53;25.40;;;12.70;;
71679;SDS011;59512;42.662;23.254;2022-12-18T15:50:19;26.77;;;13.63;;
71679;SDS011;59512;42.662;23.254;2022-12-18T15:52:45;26.43;;;13.77;;
71679;SDS011;59512;42.662;23.254;2022-12-18T15:55:12;26.50;;;13.60;;
71679;SDS011;59512;42.662;23.254;2022-12-18T15:57:57;27.23;;;13.03;;
71679;SDS011;59512;42.662;23.254;2022-12-18T16:00:22;21.80;;;12.02;;
71679;SDS011;59512;42.662;23.254;2022-12-18T16:02:48;24.83;;;12.27;;
71679;SDS011;59512;42.662;23.254;2022-12-18T16:05:14;20.60;;;11.50;;
71679;SDS011;59512;42.662;23.254;2022-12-18T16:07:42;26.05;;;13.30;;
71679;SDS011;59512;42.662;23.254;2022-12-18T16:10:07;23.73;;;12.25;;
71679;SDS011;59512;42.662;23.254;2022-12-18T16:12:33;23.77;;;11.87;;
71679;SDS011;59512;42.662;23.254;2022-12-18T16:14:58;21.67;;;11.90;;
71679;SDS011;59512;42.662;23.254;2022-12-18T16:17:24;23.47;;;12.47;;
71679;SDS011;59512;42.662;23.254;2022-12-18T16:19:49;24.30;;;12.38;;
71679;SDS011;59512;42.662;23.254;2022-12-18T16:22:22;24.37;;;12.53;;